sensor_id;sensor_type;location;lat;lon;timestamp;P1;durP1;ratioP1;P2;durP2;ratioP2
48975;SDS011;34791;52.752;8.346;2022-12-07T00:01:24;25.30;;;11.73;;
48975;SDS011;34791;52.752;8.346;2022-12-07T00:03:53;29.63;;;14.33;;
48975;SDS011;34791;52.752;8.346;2022-12-07T00:06:25;25.63;;;12.67;;
48975;SDS011;34791;52.752;8.346;2022-12-07T00:08:51;24.27;;;12.03;;
48975;SDS011;34791;52.752;8.346;2022-12-07T00:11:17;29.73;;;13.47;;
48975;SDS011;34791;52.752;8.346;2022-12-07T00:13:45;27.57;;;13.17;;
48975;SDS011;34791;52.752;8.346;2022-12-07T00:16:12;27.30;;;12.87;;
48975;SDS011;34791;52.752;8.346;2022-12-07T00:18:40;26.80;;;12.43;;
48975;SDS011;34791;52.752;8.346;2022-12-07T00:21:07;28.87;;;13.47;;
48975;SDS011;34791;52.752;8.346;2022-12-07T00:23:34;29.33;;;11.50;;
48975;SDS011;34791;52.752;8.346;2022-12-07T00:28:30;27.05;;;11.32;;
48975;SDS011;34791;52.752;8.346;2022-12-07T00:31:00;27.33;;;13.73;;
48975;SDS011;34791;52.752;8.346;2022-12-07T00:33:30;28.33;;;12.13;;
48975;SDS011;34791;52.752;8.346;2022-12-07T00:35:56;28.43;;;11.80;;
48975;SDS011;34791;52.752;8.346;2022-12-07T00:38:23;30.43;;;12.33;;
48975;SDS011;34791;52.752;8.346;2022-12-07T00:40:56;25.33;;;11.30;;
48975;SDS011;34791;52.752;8.346;2022-12-07T00:43:26;26.20;;;11.17;;
48975;SDS011;34791;52.752;8.346;2022-12-07T00:45:52;28.07;;;11.47;;
48975;SDS011;34791;52.752;8.346;2022-12-07T00:48:18;27.10;;;12.27;;
48975;SDS011;34791;52.752;8.346;2022-12-07T00:50:43;32.97;;;12.80;;
48975;SDS011;34791;52.752;8.346;2022-12-07T00:53:09;27.43;;;10.57;;
48975;SDS011;34791;52.752;8.346;2022-12-07T00:55:34;30.57;;;12.33;;
48975;SDS011;34791;52.752;8.346;2022-12-07T00:58:01;30.93;;;11.67;;
48975;SDS011;34791;52.752;8.346;2022-12-07T01:00:26;28.87;;;11.53;;
48975;SDS011;34791;52.752;8.346;2022-12-07T01:02:52;32.23;;;12.93;;
48975;SDS011;34791;52.752;8.346;2022-12-07T01:05:17;32.20;;;12.77;;
48975;SDS011;34791;52.752;8.346;2022-12-07T01:07:43;33.10;;;12.23;;
48975;SDS011;34791;52.752;8.346;2022-12-07T01:10:09;30.03;;;12.53;;
48975;SDS011;34791;52.752;8.346;2022-12-07T01:12:34;30.27;;;12.03;;
48975;SDS011;34791;52.752;8.346;2022-12-07T01:15:00;31.80;;;12.70;;
48975;SDS011;34791;52.752;8.346;2022-12-07T01:17:25;37.20;;;12.27;;
48975;SDS011;34791;52.752;8.346;2022-12-07T01:19:50;38.87;;;13.70;;
48975;SDS011;34791;52.752;8.346;2022-12-07T01:22:16;33.97;;;12.23;;
48975;SDS011;34791;52.752;8.346;2022-12-07T01:24:41;36.20;;;13.40;;
48975;SDS011;34791;52.752;8.346;2022-12-07T01:27:06;36.47;;;13.10;;
48975;SDS011;34791;52.752;8.346;2022-12-07T01:29:32;37.37;;;13.53;;
48975;SDS011;34791;52.752;8.346;2022-12-07T01:31:57;40.37;;;13.93;;
48975;SDS011;34791;52.752;8.346;2022-12-07T01:34:25;42.87;;;13.23;;
48975;SDS011;34791;52.752;8.346;2022-12-07T01:36:51;35.50;;;13.83;;
48975;SDS011;34791;52.752;8.346;2022-12-07T01:39:16;38.53;;;13.40;;
48975;SDS011;34791;52.752;8.346;2022-12-07T01:41:41;40.33;;;14.10;;
48975;SDS011;34791;52.752;8.346;2022-12-07T01:46:46;40.77;;;13.70;;
48975;SDS011;34791;52.752;8.346;2022-12-07T01:52:11;40.60;;;13.03;;
48975;SDS011;34791;52.752;8.346;2022-12-07T01:54:42;39.43;;;13.47;;
48975;SDS011;34791;52.752;8.346;2022-12-07T01:57:09;53.73;;;15.17;;
48975;SDS011;34791;52.752;8.346;2022-12-07T01:59:38;45.10;;;14.07;;
48975;SDS011;34791;52.752;8.346;2022-12-07T02:02:04;50.33;;;14.13;;
48975;SDS011;34791;52.752;8.346;2022-12-07T02:04:34;44.33;;;13.30;;
48975;SDS011;34791;52.752;8.346;2022-12-07T02:07:01;45.27;;;13.73;;
48975;SDS011;34791;52.752;8.346;2022-12-07T02:09:28;39.80;;;13.77;;
48975;SDS011;34791;52.752;8.346;2022-12-07T02:11:53;45.07;;;13.63;;
48975;SDS011;34791;52.752;8.346;2022-12-07T02:14:20;39.87;;;12.97;;
48975;SDS011;34791;52.752;8.346;2022-12-07T02:16:55;43.30;;;13.90;;
48975;SDS011;34791;52.752;8.346;2022-12-07T02:27:46;47.77;;;13.30;;
48975;SDS011;34791;52.752;8.346;2022-12-07T02:30:16;48.17;;;13.17;;
48975;SDS011;34791;52.752;8.346;2022-12-07T02:32:57;44.03;;;13.83;;
48975;SDS011;34791;52.752;8.346;2022-12-07T02:38:37;46.53;;;14.40;;
48975;SDS011;34791;52.752;8.346;2022-12-07T02:41:10;47.10;;;14.20;;
48975;SDS011;34791;52.752;8.346;2022-12-07T02:43:41;44.83;;;13.30;;
48975;SDS011;34791;52.752;8.346;2022-12-07T02:46:14;30.52;;;10.18;;
48975;SDS011;34791;52.752;8.346;2022-12-07T02:48:46;37.90;;;11.43;;
48975;SDS011;34791;52.752;8.346;2022-12-07T02:51:12;37.90;;;11.13;;
48975;SDS011;34791;52.752;8.346;2022-12-07T02:53:39;32.27;;;9.77;;
48975;SDS011;34791;52.752;8.346;2022-12-07T03:04:21;38.20;;;10.77;;
48975;SDS011;34791;52.752;8.346;2022-12-07T03:12:36;32.80;;;9.80;;
48975;SDS011;34791;52.752;8.346;2022-12-07T03:18:11;26.03;;;9.53;;
48975;SDS011;34791;52.752;8.346;2022-12-07T03:20:39;30.87;;;9.13;;
48975;SDS011;34791;52.752;8.346;2022-12-07T03:23:08;24.50;;;8.37;;
48975;SDS011;34791;52.752;8.346;2022-12-07T03:25:37;30.13;;;9.23;;
48975;SDS011;34791;52.752;8.346;2022-12-07T03:28:07;26.55;;;9.32;;
48975;SDS011;34791;52.752;8.346;2022-12-07T03:30:55;31.53;;;9.70;;
48975;SDS011;34791;52.752;8.346;2022-12-07T03:33:29;28.67;;;9.50;;
48975;SDS011;34791;52.752;8.346;2022-12-07T03:36:06;33.93;;;9.73;;
48975;SDS011;34791;52.752;8.346;2022-12-07T03:38:58;31.13;;;9.60;;
48975;SDS011;34791;52.752;8.346;2022-12-07T03:41:33;32.70;;;10.13;;
48975;SDS011;34791;52.752;8.346;2022-12-07T03:44:02;28.57;;;9.47;;
48975;SDS011;34791;52.752;8.346;2022-12-07T03:46:50;30.63;;;9.70;;
48975;SDS011;34791;52.752;8.346;2022-12-07T03:54:57;27.70;;;9.23;;
48975;SDS011;34791;52.752;8.346;2022-12-07T03:57:29;26.97;;;8.20;;
48975;SDS011;34791;52.752;8.346;2022-12-07T03:59:56;33.80;;;9.80;;
48975;SDS011;34791;52.752;8.346;2022-12-07T04:02:23;22.40;;;6.67;;
48975;SDS011;34791;52.752;8.346;2022-12-07T04:04:50;22.50;;;7.37;;
48975;SDS011;34791;52.752;8.346;2022-12-07T04:07:15;31.00;;;8.03;;
48975;SDS011;34791;52.752;8.346;2022-12-07T04:09:40;25.53;;;8.20;;
48975;SDS011;34791;52.752;8.346;2022-12-07T04:12:06;21.30;;;6.40;;
48975;SDS011;34791;52.752;8.346;2022-12-07T04:14:32;24.87;;;6.23;;
48975;SDS011;34791;52.752;8.346;2022-12-07T04:16:57;20.47;;;5.97;;
48975;SDS011;34791;52.752;8.346;2022-12-07T04:19:30;18.47;;;5.87;;
48975;SDS011;34791;52.752;8.346;2022-12-07T04:21:57;20.97;;;6.00;;
48975;SDS011;34791;52.752;8.346;2022-12-07T04:24:24;19.60;;;5.20;;
48975;SDS011;34791;52.752;8.346;2022-12-07T04:26:50;18.83;;;4.93;;
48975;SDS011;34791;52.752;8.346;2022-12-07T04:29:16;17.30;;;4.40;;
48975;SDS011;34791;52.752;8.346;2022-12-07T04:31:43;19.70;;;4.87;;
48975;SDS011;34791;52.752;8.346;2022-12-07T04:34:09;12.20;;;4.20;;
48975;SDS011;34791;52.752;8.346;2022-12-07T04:36:34;19.43;;;4.60;;
48975;SDS011;34791;52.752;8.346;2022-12-07T04:39:00;18.23;;;4.50;;
48975;SDS011;34791;52.752;8.346;2022-12-07T04:41:25;12.30;;;3.80;;
48975;SDS011;34791;52.752;8.346;2022-12-07T04:43:58;12.47;;;4.20;;
48975;SDS011;34791;52.752;8.346;2022-12-07T04:46:25;23.58;;;6.60;;
48975;SDS011;34791;52.752;8.346;2022-12-07T04:48:52;16.60;;;4.27;;
48975;SDS011;34791;52.752;8.346;2022-12-07T04:51:19;13.53;;;4.60;;
48975;SDS011;34791;52.752;8.346;2022-12-07T04:53:47;15.47;;;4.30;;
48975;SDS011;34791;52.752;8.346;2022-12-07T04:56:13;17.90;;;4.27;;
48975;SDS011;34791;52.752;8.346;2022-12-07T04:58:39;14.83;;;3.47;;
48975;SDS011;34791;52.752;8.346;2022-12-07T05:01:05;18.90;;;4.23;;
48975;SDS011;34791;52.752;8.346;2022-12-07T05:03:31;13.83;;;3.73;;
48975;SDS011;34791;52.752;8.346;2022-12-07T05:05:56;16.53;;;3.57;;
48975;SDS011;34791;52.752;8.346;2022-12-07T05:08:22;11.93;;;3.13;;
48975;SDS011;34791;52.752;8.346;2022-12-07T05:10:48;11.33;;;2.80;;
48975;SDS011;34791;52.752;8.346;2022-12-07T05:13:14;8.37;;;2.80;;
48975;SDS011;34791;52.752;8.346;2022-12-07T05:15:39;12.43;;;3.47;;
48975;SDS011;34791;52.752;8.346;2022-12-07T05:18:05;10.33;;;3.37;;
48975;SDS011;34791;52.752;8.346;2022-12-07T05:20:30;8.67;;;2.97;;
48975;SDS011;34791;52.752;8.346;2022-12-07T05:22:56;11.13;;;3.20;;
48975;SDS011;34791;52.752;8.346;2022-12-07T05:25:23;7.90;;;2.97;;
48975;SDS011;34791;52.752;8.346;2022-12-07T05:27:48;11.07;;;3.07;;
48975;SDS011;34791;52.752;8.346;2022-12-07T05:30:14;12.53;;;2.80;;
48975;SDS011;34791;52.752;8.346;2022-12-07T05:32:40;9.73;;;3.00;;
48975;SDS011;34791;52.752;8.346;2022-12-07T05:35:05;11.83;;;2.67;;
48975;SDS011;34791;52.752;8.346;2022-12-07T05:37:31;8.17;;;2.30;;
48975;SDS011;34791;52.752;8.346;2022-12-07T05:39:56;12.93;;;2.70;;
48975;SDS011;34791;52.752;8.346;2022-12-07T05:42:22;13.63;;;3.30;;
48975;SDS011;34791;52.752;8.346;2022-12-07T05:44:47;12.43;;;3.53;;
48975;SDS011;34791;52.752;8.346;2022-12-07T05:47:13;8.40;;;2.63;;
48975;SDS011;34791;52.752;8.346;2022-12-07T05:49:39;11.47;;;2.80;;
48975;SDS011;34791;52.752;8.346;2022-12-07T05:52:05;9.90;;;2.63;;
48975;SDS011;34791;52.752;8.346;2022-12-07T05:54:31;7.10;;;2.47;;
48975;SDS011;34791;52.752;8.346;2022-12-07T05:56:56;10.33;;;2.30;;
48975;SDS011;34791;52.752;8.346;2022-12-07T05:59:22;9.70;;;2.10;;
48975;SDS011;34791;52.752;8.346;2022-12-07T06:01:48;14.83;;;2.67;;
48975;SDS011;34791;52.752;8.346;2022-12-07T06:04:15;15.60;;;2.37;;
48975;SDS011;34791;52.752;8.346;2022-12-07T06:06:41;11.13;;;2.67;;
48975;SDS011;34791;52.752;8.346;2022-12-07T06:09:07;7.30;;;2.00;;
48975;SDS011;34791;52.752;8.346;2022-12-07T06:11:32;10.07;;;2.33;;
48975;SDS011;34791;52.752;8.346;2022-12-07T06:14:16;5.70;;;1.83;;
48975;SDS011;34791;52.752;8.346;2022-12-07T06:16:41;8.73;;;2.33;;
48975;SDS011;34791;52.752;8.346;2022-12-07T06:19:07;9.40;;;2.00;;
48975;SDS011;34791;52.752;8.346;2022-12-07T06:21:32;13.90;;;2.30;;
48975;SDS011;34791;52.752;8.346;2022-12-07T06:23:57;9.60;;;2.20;;
48975;SDS011;34791;52.752;8.346;2022-12-07T06:26:23;8.50;;;2.27;;
48975;SDS011;34791;52.752;8.346;2022-12-07T06:28:48;11.93;;;2.20;;
48975;SDS011;34791;52.752;8.346;2022-12-07T06:31:14;9.17;;;2.43;;
48975;SDS011;34791;52.752;8.346;2022-12-07T06:33:40;8.70;;;2.10;;
48975;SDS011;34791;52.752;8.346;2022-12-07T06:36:06;15.47;;;3.20;;
48975;SDS011;34791;52.752;8.346;2022-12-07T06:38:32;6.13;;;2.03;;
48975;SDS011;34791;52.752;8.346;2022-12-07T06:40:57;12.00;;;2.70;;
48975;SDS011;34791;52.752;8.346;2022-12-07T06:43:22;9.77;;;2.37;;
48975;SDS011;34791;52.752;8.346;2022-12-07T06:45:48;9.93;;;3.03;;
48975;SDS011;34791;52.752;8.346;2022-12-07T06:48:13;6.13;;;2.30;;
48975;SDS011;34791;52.752;8.346;2022-12-07T06:50:39;11.30;;;2.93;;
48975;SDS011;34791;52.752;8.346;2022-12-07T06:53:04;8.23;;;2.40;;
48975;SDS011;34791;52.752;8.346;2022-12-07T06:55:30;9.47;;;2.30;;
48975;SDS011;34791;52.752;8.346;2022-12-07T06:57:55;6.70;;;2.13;;
48975;SDS011;34791;52.752;8.346;2022-12-07T07:00:20;9.87;;;2.30;;
48975;SDS011;34791;52.752;8.346;2022-12-07T07:02:46;7.40;;;2.03;;
48975;SDS011;34791;52.752;8.346;2022-12-07T07:05:11;7.87;;;2.30;;
48975;SDS011;34791;52.752;8.346;2022-12-07T07:07:37;6.97;;;3.40;;
48975;SDS011;34791;52.752;8.346;2022-12-07T07:10:02;10.43;;;4.10;;
48975;SDS011;34791;52.752;8.346;2022-12-07T07:12:28;11.60;;;3.30;;
48975;SDS011;34791;52.752;8.346;2022-12-07T07:14:53;14.20;;;3.10;;
48975;SDS011;34791;52.752;8.346;2022-12-07T07:17:19;12.17;;;2.70;;
48975;SDS011;34791;52.752;8.346;2022-12-07T07:19:44;11.80;;;3.40;;
48975;SDS011;34791;52.752;8.346;2022-12-07T07:22:09;8.70;;;3.63;;
48975;SDS011;34791;52.752;8.346;2022-12-07T07:24:35;11.83;;;2.90;;
48975;SDS011;34791;52.752;8.346;2022-12-07T07:27:00;11.10;;;2.80;;
48975;SDS011;34791;52.752;8.346;2022-12-07T07:29:26;11.20;;;2.87;;
48975;SDS011;34791;52.752;8.346;2022-12-07T07:31:51;11.00;;;2.90;;
48975;SDS011;34791;52.752;8.346;2022-12-07T07:34:16;10.73;;;3.07;;
48975;SDS011;34791;52.752;8.346;2022-12-07T07:36:42;14.33;;;2.80;;
48975;SDS011;34791;52.752;8.346;2022-12-07T07:39:07;14.20;;;2.97;;
48975;SDS011;34791;52.752;8.346;2022-12-07T07:41:34;11.67;;;3.10;;
48975;SDS011;34791;52.752;8.346;2022-12-07T07:43:59;10.43;;;2.33;;
48975;SDS011;34791;52.752;8.346;2022-12-07T07:46:25;8.80;;;2.50;;
48975;SDS011;34791;52.752;8.346;2022-12-07T07:48:50;8.20;;;2.47;;
48975;SDS011;34791;52.752;8.346;2022-12-07T07:51:15;13.53;;;2.70;;
48975;SDS011;34791;52.752;8.346;2022-12-07T07:53:41;14.80;;;2.30;;
48975;SDS011;34791;52.752;8.346;2022-12-07T07:56:06;14.37;;;2.33;;
48975;SDS011;34791;52.752;8.346;2022-12-07T07:58:31;13.60;;;3.00;;
48975;SDS011;34791;52.752;8.346;2022-12-07T08:01:02;13.57;;;2.80;;
48975;SDS011;34791;52.752;8.346;2022-12-07T08:03:28;8.55;;;2.83;;
48975;SDS011;34791;52.752;8.346;2022-12-07T08:05:54;9.67;;;2.80;;
48975;SDS011;34791;52.752;8.346;2022-12-07T08:08:19;16.63;;;3.60;;
48975;SDS011;34791;52.752;8.346;2022-12-07T08:10:44;10.73;;;3.20;;
48975;SDS011;34791;52.752;8.346;2022-12-07T08:13:10;13.23;;;3.00;;
48975;SDS011;34791;52.752;8.346;2022-12-07T08:15:42;14.43;;;3.10;;
48975;SDS011;34791;52.752;8.346;2022-12-07T08:18:09;9.43;;;2.77;;
48975;SDS011;34791;52.752;8.346;2022-12-07T08:20:35;11.70;;;2.87;;
48975;SDS011;34791;52.752;8.346;2022-12-07T08:23:01;11.27;;;3.30;;
48975;SDS011;34791;52.752;8.346;2022-12-07T08:25:27;8.60;;;2.33;;
48975;SDS011;34791;52.752;8.346;2022-12-07T08:27:53;8.77;;;2.10;;
48975;SDS011;34791;52.752;8.346;2022-12-07T08:30:19;8.13;;;2.07;;
48975;SDS011;34791;52.752;8.346;2022-12-07T08:32:46;10.00;;;2.30;;
48975;SDS011;34791;52.752;8.346;2022-12-07T08:35:12;6.10;;;1.80;;
48975;SDS011;34791;52.752;8.346;2022-12-07T08:37:38;9.00;;;2.03;;
48975;SDS011;34791;52.752;8.346;2022-12-07T08:40:04;6.60;;;2.00;;
48975;SDS011;34791;52.752;8.346;2022-12-07T08:42:31;6.53;;;1.50;;
48975;SDS011;34791;52.752;8.346;2022-12-07T08:45:04;7.03;;;1.85;;
48975;SDS011;34791;52.752;8.346;2022-12-07T08:47:35;10.57;;;1.95;;
48975;SDS011;34791;52.752;8.346;2022-12-07T08:50:03;11.93;;;1.80;;
48975;SDS011;34791;52.752;8.346;2022-12-07T08:52:31;7.33;;;2.10;;
48975;SDS011;34791;52.752;8.346;2022-12-07T08:54:58;10.57;;;2.27;;
48975;SDS011;34791;52.752;8.346;2022-12-07T08:57:26;12.70;;;2.00;;
48975;SDS011;34791;52.752;8.346;2022-12-07T08:59:53;8.40;;;1.73;;
48975;SDS011;34791;52.752;8.346;2022-12-07T09:02:18;11.07;;;1.90;;
48975;SDS011;34791;52.752;8.346;2022-12-07T09:04:44;15.97;;;1.97;;
48975;SDS011;34791;52.752;8.346;2022-12-07T09:07:09;4.97;;;1.50;;
48975;SDS011;34791;52.752;8.346;2022-12-07T09:09:35;9.67;;;1.87;;
48975;SDS011;34791;52.752;8.346;2022-12-07T09:12:00;6.50;;;1.77;;
48975;SDS011;34791;52.752;8.346;2022-12-07T09:14:26;16.03;;;2.40;;
48975;SDS011;34791;52.752;8.346;2022-12-07T09:16:51;7.87;;;1.80;;
48975;SDS011;34791;52.752;8.346;2022-12-07T09:19:16;10.90;;;2.23;;
48975;SDS011;34791;52.752;8.346;2022-12-07T09:21:42;10.50;;;1.70;;
48975;SDS011;34791;52.752;8.346;2022-12-07T09:24:07;5.73;;;1.40;;
48975;SDS011;34791;52.752;8.346;2022-12-07T09:26:34;7.97;;;1.93;;
48975;SDS011;34791;52.752;8.346;2022-12-07T09:29:00;9.03;;;2.50;;
48975;SDS011;34791;52.752;8.346;2022-12-07T09:31:27;10.23;;;2.10;;
48975;SDS011;34791;52.752;8.346;2022-12-07T09:33:56;7.60;;;1.97;;
48975;SDS011;34791;52.752;8.346;2022-12-07T09:36:24;4.47;;;1.60;;
48975;SDS011;34791;52.752;8.346;2022-12-07T09:38:50;10.70;;;2.07;;
48975;SDS011;34791;52.752;8.346;2022-12-07T09:41:15;6.67;;;1.80;;
48975;SDS011;34791;52.752;8.346;2022-12-07T09:43:41;8.23;;;2.70;;
48975;SDS011;34791;52.752;8.346;2022-12-07T09:46:08;8.07;;;2.10;;
48975;SDS011;34791;52.752;8.346;2022-12-07T09:48:39;6.43;;;2.23;;
48975;SDS011;34791;52.752;8.346;2022-12-07T09:51:17;7.77;;;2.00;;
48975;SDS011;34791;52.752;8.346;2022-12-07T09:53:47;12.10;;;2.50;;
48975;SDS011;34791;52.752;8.346;2022-12-07T09:56:13;7.23;;;2.50;;
48975;SDS011;34791;52.752;8.346;2022-12-07T09:58:40;9.73;;;2.50;;
48975;SDS011;34791;52.752;8.346;2022-12-07T10:03:32;10.83;;;2.60;;
48975;SDS011;34791;52.752;8.346;2022-12-07T10:05:59;8.27;;;2.43;;
48975;SDS011;34791;52.752;8.346;2022-12-07T10:08:25;10.27;;;2.43;;
48975;SDS011;34791;52.752;8.346;2022-12-07T10:10:52;9.30;;;2.33;;
48975;SDS011;34791;52.752;8.346;2022-12-07T10:13:21;10.80;;;2.20;;
48975;SDS011;34791;52.752;8.346;2022-12-07T10:15:59;9.63;;;2.47;;
48975;SDS011;34791;52.752;8.346;2022-12-07T10:21:15;11.30;;;3.03;;
48975;SDS011;34791;52.752;8.346;2022-12-07T10:26:34;8.60;;;2.10;;
48975;SDS011;34791;52.752;8.346;2022-12-07T10:29:02;9.97;;;2.40;;
48975;SDS011;34791;52.752;8.346;2022-12-07T10:31:54;13.67;;;2.63;;
48975;SDS011;34791;52.752;8.346;2022-12-07T10:34:24;8.77;;;2.50;;
48975;SDS011;34791;52.752;8.346;2022-12-07T10:36:52;11.83;;;2.83;;
48975;SDS011;34791;52.752;8.346;2022-12-07T10:39:19;11.87;;;2.80;;
48975;SDS011;34791;52.752;8.346;2022-12-07T10:44:22;7.70;;;2.30;;
48975;SDS011;34791;52.752;8.346;2022-12-07T11:06:27;4.90;;;1.40;;
48975;SDS011;34791;52.752;8.346;2022-12-07T11:14:58;15.77;;;2.63;;
48975;SDS011;34791;52.752;8.346;2022-12-07T11:17:31;7.30;;;2.10;;
48975;SDS011;34791;52.752;8.346;2022-12-07T11:20:24;5.72;;;1.70;;
48975;SDS011;34791;52.752;8.346;2022-12-07T11:22:58;7.10;;;1.90;;
48975;SDS011;34791;52.752;8.346;2022-12-07T11:25:52;13.00;;;2.43;;
48975;SDS011;34791;52.752;8.346;2022-12-07T11:39:03;11.63;;;2.00;;
48975;SDS011;34791;52.752;8.346;2022-12-07T11:41:37;4.50;;;1.60;;
48975;SDS011;34791;52.752;8.346;2022-12-07T11:44:07;8.60;;;1.90;;
48975;SDS011;34791;52.752;8.346;2022-12-07T11:46:45;11.80;;;2.00;;
48975;SDS011;34791;52.752;8.346;2022-12-07T11:52:10;6.43;;;1.80;;
48975;SDS011;34791;52.752;8.346;2022-12-07T11:54:43;8.67;;;1.63;;
48975;SDS011;34791;52.752;8.346;2022-12-07T11:57:13;7.77;;;1.60;;
48975;SDS011;34791;52.752;8.346;2022-12-07T11:59:46;8.03;;;1.83;;
48975;SDS011;34791;52.752;8.346;2022-12-07T12:02:16;7.03;;;1.50;;
48975;SDS011;34791;52.752;8.346;2022-12-07T12:07:47;5.67;;;1.63;;
48975;SDS011;34791;52.752;8.346;2022-12-07T12:16:01;4.77;;;1.20;;
48975;SDS011;34791;52.752;8.346;2022-12-07T12:18:45;7.73;;;1.50;;
48975;SDS011;34791;52.752;8.346;2022-12-07T12:21:20;8.07;;;2.00;;
48975;SDS011;34791;52.752;8.346;2022-12-07T12:26:40;4.40;;;1.27;;
48975;SDS011;34791;52.752;8.346;2022-12-07T12:29:30;7.87;;;1.77;;
48975;SDS011;34791;52.752;8.346;2022-12-07T12:32:18;6.80;;;2.03;;
48975;SDS011;34791;52.752;8.346;2022-12-07T12:42:47;8.23;;;1.70;;
48975;SDS011;34791;52.752;8.346;2022-12-07T12:47:56;4.37;;;1.20;;
48975;SDS011;34791;52.752;8.346;2022-12-07T12:50:35;6.83;;;1.60;;
48975;SDS011;34791;52.752;8.346;2022-12-07T12:53:03;6.93;;;1.50;;
48975;SDS011;34791;52.752;8.346;2022-12-07T13:00:42;8.27;;;1.70;;
48975;SDS011;34791;52.752;8.346;2022-12-07T13:03:16;5.37;;;1.50;;
48975;SDS011;34791;52.752;8.346;2022-12-07T13:05:48;8.50;;;1.47;;
48975;SDS011;34791;52.752;8.346;2022-12-07T13:08:48;6.07;;;1.50;;
48975;SDS011;34791;52.752;8.346;2022-12-07T13:11:33;6.10;;;1.27;;
48975;SDS011;34791;52.752;8.346;2022-12-07T13:17:09;7.23;;;1.33;;
48975;SDS011;34791;52.752;8.346;2022-12-07T13:20:01;7.60;;;2.10;;
48975;SDS011;34791;52.752;8.346;2022-12-07T13:24:57;15.57;;;2.80;;
48975;SDS011;34791;52.752;8.346;2022-12-07T13:27:29;7.67;;;1.67;;
48975;SDS011;34791;52.752;8.346;2022-12-07T13:29:56;7.33;;;2.50;;
48975;SDS011;34791;52.752;8.346;2022-12-07T13:32:23;11.67;;;2.53;;
48975;SDS011;34791;52.752;8.346;2022-12-07T13:34:51;6.17;;;1.80;;
48975;SDS011;34791;52.752;8.346;2022-12-07T13:37:23;6.50;;;2.13;;
48975;SDS011;34791;52.752;8.346;2022-12-07T13:39:55;11.50;;;2.37;;
48975;SDS011;34791;52.752;8.346;2022-12-07T13:42:29;9.57;;;2.03;;
48975;SDS011;34791;52.752;8.346;2022-12-07T13:44:57;10.90;;;2.17;;
48975;SDS011;34791;52.752;8.346;2022-12-07T13:47:44;10.00;;;2.10;;
48975;SDS011;34791;52.752;8.346;2022-12-07T13:50:27;10.10;;;2.27;;
48975;SDS011;34791;52.752;8.346;2022-12-07T13:52:55;9.97;;;1.80;;
48975;SDS011;34791;52.752;8.346;2022-12-07T13:55:22;8.70;;;2.27;;
48975;SDS011;34791;52.752;8.346;2022-12-07T13:57:49;6.90;;;1.80;;
48975;SDS011;34791;52.752;8.346;2022-12-07T14:00:18;11.17;;;2.00;;
48975;SDS011;34791;52.752;8.346;2022-12-07T14:02:55;11.63;;;2.30;;
48975;SDS011;34791;52.752;8.346;2022-12-07T14:05:36;11.80;;;2.30;;
48975;SDS011;34791;52.752;8.346;2022-12-07T14:08:21;10.73;;;2.27;;
48975;SDS011;34791;52.752;8.346;2022-12-07T14:15:49;11.33;;;2.13;;
48975;SDS011;34791;52.752;8.346;2022-12-07T14:18:26;9.93;;;2.03;;
48975;SDS011;34791;52.752;8.346;2022-12-07T14:21:06;10.87;;;2.30;;
48975;SDS011;34791;52.752;8.346;2022-12-07T14:23:34;8.20;;;1.90;;
48975;SDS011;34791;52.752;8.346;2022-12-07T14:26:18;12.63;;;2.00;;
48975;SDS011;34791;52.752;8.346;2022-12-07T14:28:45;13.13;;;2.70;;
48975;SDS011;34791;52.752;8.346;2022-12-07T14:31:12;11.07;;;2.50;;
48975;SDS011;34791;52.752;8.346;2022-12-07T14:33:40;7.37;;;1.97;;
48975;SDS011;34791;52.752;8.346;2022-12-07T14:36:08;11.47;;;2.47;;
48975;SDS011;34791;52.752;8.346;2022-12-07T14:38:35;7.27;;;1.90;;
48975;SDS011;34791;52.752;8.346;2022-12-07T14:41:01;8.47;;;1.93;;
48975;SDS011;34791;52.752;8.346;2022-12-07T14:43:47;27.07;;;2.40;;
48975;SDS011;34791;52.752;8.346;2022-12-07T14:46:14;8.17;;;2.33;;
48975;SDS011;34791;52.752;8.346;2022-12-07T14:48:39;12.83;;;1.90;;
48975;SDS011;34791;52.752;8.346;2022-12-07T14:51:04;7.33;;;1.70;;
48975;SDS011;34791;52.752;8.346;2022-12-07T14:53:31;4.13;;;1.07;;
48975;SDS011;34791;52.752;8.346;2022-12-07T14:56:02;8.45;;;1.77;;
48975;SDS011;34791;52.752;8.346;2022-12-07T14:58:30;7.80;;;1.63;;
48975;SDS011;34791;52.752;8.346;2022-12-07T15:00:55;8.50;;;2.07;;
48975;SDS011;34791;52.752;8.346;2022-12-07T15:03:21;9.23;;;2.00;;
48975;SDS011;34791;52.752;8.346;2022-12-07T15:05:46;8.03;;;2.00;;
48975;SDS011;34791;52.752;8.346;2022-12-07T15:08:11;8.03;;;1.80;;
48975;SDS011;34791;52.752;8.346;2022-12-07T15:10:37;7.87;;;1.63;;
48975;SDS011;34791;52.752;8.346;2022-12-07T15:13:05;11.00;;;2.03;;
48975;SDS011;34791;52.752;8.346;2022-12-07T15:15:50;10.10;;;1.83;;
48975;SDS011;34791;52.752;8.346;2022-12-07T15:18:17;6.07;;;1.70;;
48975;SDS011;34791;52.752;8.346;2022-12-07T15:20:44;12.00;;;1.70;;
48975;SDS011;34791;52.752;8.346;2022-12-07T15:23:09;4.63;;;1.70;;
48975;SDS011;34791;52.752;8.346;2022-12-07T15:25:35;9.90;;;2.20;;
48975;SDS011;34791;52.752;8.346;2022-12-07T15:28:01;12.83;;;2.30;;
48975;SDS011;34791;52.752;8.346;2022-12-07T15:30:26;13.37;;;2.30;;
48975;SDS011;34791;52.752;8.346;2022-12-07T15:32:52;10.07;;;2.40;;
48975;SDS011;34791;52.752;8.346;2022-12-07T15:35:18;12.57;;;2.80;;
48975;SDS011;34791;52.752;8.346;2022-12-07T15:37:44;9.03;;;1.80;;
48975;SDS011;34791;52.752;8.346;2022-12-07T15:40:10;9.83;;;2.60;;
48975;SDS011;34791;52.752;8.346;2022-12-07T15:42:36;6.40;;;2.10;;
48975;SDS011;34791;52.752;8.346;2022-12-07T15:45:02;9.50;;;2.20;;
48975;SDS011;34791;52.752;8.346;2022-12-07T15:47:28;14.47;;;2.40;;
48975;SDS011;34791;52.752;8.346;2022-12-07T15:49:54;14.60;;;2.30;;
48975;SDS011;34791;52.752;8.346;2022-12-07T15:52:20;9.57;;;2.43;;
48975;SDS011;34791;52.752;8.346;2022-12-07T15:54:45;9.07;;;2.40;;
48975;SDS011;34791;52.752;8.346;2022-12-07T15:57:12;14.50;;;2.67;;
48975;SDS011;34791;52.752;8.346;2022-12-07T15:59:38;10.07;;;2.50;;
48975;SDS011;34791;52.752;8.346;2022-12-07T16:02:03;11.53;;;2.87;;
48975;SDS011;34791;52.752;8.346;2022-12-07T16:04:29;11.60;;;2.60;;
48975;SDS011;34791;52.752;8.346;2022-12-07T16:06:54;16.30;;;2.80;;
48975;SDS011;34791;52.752;8.346;2022-12-07T16:09:20;10.43;;;2.60;;
48975;SDS011;34791;52.752;8.346;2022-12-07T16:11:46;14.57;;;3.50;;
48975;SDS011;34791;52.752;8.346;2022-12-07T16:14:12;12.20;;;3.13;;
48975;SDS011;34791;52.752;8.346;2022-12-07T16:16:37;12.93;;;3.00;;
48975;SDS011;34791;52.752;8.346;2022-12-07T16:19:05;14.83;;;2.70;;
48975;SDS011;34791;52.752;8.346;2022-12-07T16:21:30;14.83;;;2.80;;
48975;SDS011;34791;52.752;8.346;2022-12-07T16:23:57;10.67;;;3.00;;
48975;SDS011;34791;52.752;8.346;2022-12-07T16:26:24;11.60;;;2.50;;
48975;SDS011;34791;52.752;8.346;2022-12-07T16:28:49;9.17;;;2.43;;
48975;SDS011;34791;52.752;8.346;2022-12-07T16:31:18;11.07;;;2.60;;
48975;SDS011;34791;52.752;8.346;2022-12-07T16:33:45;12.30;;;2.97;;
48975;SDS011;34791;52.752;8.346;2022-12-07T16:36:14;14.63;;;3.60;;
48975;SDS011;34791;52.752;8.346;2022-12-07T16:38:41;10.53;;;3.47;;
48975;SDS011;34791;52.752;8.346;2022-12-07T16:41:08;13.17;;;2.97;;
48975;SDS011;34791;52.752;8.346;2022-12-07T16:43:34;14.70;;;3.83;;
48975;SDS011;34791;52.752;8.346;2022-12-07T16:46:01;11.10;;;3.50;;
48975;SDS011;34791;52.752;8.346;2022-12-07T16:48:27;13.27;;;3.27;;
48975;SDS011;34791;52.752;8.346;2022-12-07T16:50:52;14.77;;;3.30;;
48975;SDS011;34791;52.752;8.346;2022-12-07T16:53:21;9.80;;;2.97;;